Time;durP1;ratioP1;P1;durP2;ratioP2;P2;SDS_P1;SDS_P2;PMS_P1;PMS_P2;Temp;Humidity;BMP_temperature;BMP_pressure;BME280_temperature;BME280_humidity;BME280_pressure;Samples;Min_cycle;Max_cycle;Signal;HPM_P1;HPM_P2
2022/07/07 00:02:10;;;;;;;1.70;1.10;;;17.20;97.20;;;;;;5060037;28;20439;-42
2022/07/07 00:04:36;;;;;;;2.57;1.73;;;17.10;97.60;;;;;;5060056;28;20511;-41
2022/07/07 00:07:04;;;;;;;1.27;0.90;;;17.20;97.40;;;;;;5060147;28;20471;-49
2022/07/07 00:09:31;;;;;;;3.00;1.50;;;17.10;97.50;;;;;;5060237;28;20503;-46
2022/07/07 00:11:58;;;;;;;2.87;1.30;;;17.10;97.50;;;;;;5060345;28;20474;-44
2022/07/07 00:14:25;;;;;;;3.43;1.23;;;17.10;97.70;;;;;;5060494;28;20546;-47
2022/07/07 00:16:53;;;;;;;6.17;2.73;;;17.10;97.80;;;;;;5060413;28;20444;-44
2022/07/07 00:19:20;;;;;;;1.93;1.00;;;17.10;98.00;;;;;;5060344;28;20448;-44
2022/07/07 00:21:47;;;;;;;4.33;2.10;;;17.10;98.20;;;;;;5060297;28;20467;-42
2022/07/07 00:24:16;;;;;;;2.07;1.43;;;17.20;98.10;;;;;;5060201;28;20786;-47
2022/07/07 00:26:43;;;;;;;9.23;3.43;;;17.20;98.00;;;;;;5059777;28;20504;-42
2022/07/07 00:29:09;;;;;;;4.10;1.03;;;17.20;98.10;;;;;;5059662;28;20455;-51
2022/07/07 00:31:36;;;;;;;2.43;0.97;;;17.20;97.90;;;;;;5059888;28;20471;-49
2022/07/07 00:34:05;;;;;;;1.27;0.80;;;17.20;97.80;;;;;;5059797;28;20471;-47
2022/07/07 00:36:32;;;;;;;2.70;1.30;;;17.20;97.80;;;;;;5060115;28;20472;-51
2022/07/07 00:38:58;;;;;;;2.80;1.00;;;17.30;97.90;;;;;;5060204;28;20444;-44
2022/07/07 00:41:25;;;;;;;4.60;1.17;;;17.30;97.80;;;;;;5060077;28;20458;-44
2022/07/07 00:43:52;;;;;;;1.83;1.07;;;17.30;97.90;;;;;;5059977;28;20491;-45
2022/07/07 00:46:20;;;;;;;2.70;1.00;;;17.30;98.00;;;;;;5059647;28;20490;-52
2022/07/07 00:48:50;;;;;;;2.77;0.97;;;17.40;98.00;;;;;;5060309;28;20452;-49
2022/07/07 00:51:18;;;;;;;3.13;1.17;;;17.40;98.00;;;;;;5057157;28;20463;-48
2022/07/07 00:53:45;;;;;;;1.60;1.00;;;17.40;98.10;;;;;;5056588;28;20460;-46
2022/07/07 00:56:12;;;;;;;2.00;1.13;;;17.40;98.00;;;;;;5056471;28;20456;-46
2022/07/07 00:58:39;;;;;;;1.60;0.90;;;17.40;98.20;;;;;;5056785;28;20473;-48
2022/07/07 01:01:10;;;;;;;1.87;1.00;;;17.30;98.30;;;;;;5056551;28;20524;-47
2022/07/07 01:03:37;;;;;;;1.00;0.70;;;17.30;98.60;;;;;;5056886;28;20463;-41
2022/07/07 01:06:04;;;;;;;3.10;1.33;;;17.20;98.70;;;;;;5056309;28;20506;-48
2022/07/07 01:08:32;;;;;;;2.50;1.20;;;17.20;98.80;;;;;;5056810;28;20462;-44
2022/07/07 01:10:59;;;;;;;4.20;1.10;;;17.20;99.10;;;;;;5056579;28;20474;-47
2022/07/07 01:13:27;;;;;;;1.50;0.90;;;17.20;99.20;;;;;;5055483;28;20498;-42
2022/07/07 01:15:53;;;;;;;3.57;1.30;;;17.10;99.40;;;;;;5057102;28;20448;-48
2022/07/07 01:18:20;;;;;;;2.90;1.10;;;17.20;99.50;;;;;;5056421;28;20444;-45
2022/07/07 01:20:48;;;;;;;2.37;1.10;;;17.20;99.90;;;;;;5056496;28;20451;-44
2022/07/07 01:23:19;;;;;;;3.70;1.33;;;17.20;99.90;;;;;;5056137;28;20475;-48
2022/07/07 01:25:46;;;;;;;5.07;0.90;;;17.10;99.90;;;;;;5055605;28;20543;-47
2022/07/07 01:28:13;;;;;;;4.40;1.23;;;17.10;99.90;;;;;;5056140;28;20508;-44
2022/07/07 01:30:40;;;;;;;2.90;1.20;;;17.00;99.90;;;;;;5056198;28;20464;-52
2022/07/07 01:33:06;;;;;;;7.03;1.17;;;16.90;99.90;;;;;;5056054;28;20443;-51
2022/07/07 01:35:33;;;;;;;3.13;1.33;;;16.80;99.90;;;;;;5056070;28;20959;-46
2022/07/07 01:38:02;;;;;;;2.37;1.07;;;16.70;99.90;;;;;;5055720;28;20517;-51
2022/07/07 01:40:30;;;;;;;1.20;0.90;;;16.70;99.90;;;;;;5056174;28;20467;-49
2022/07/07 01:42:57;;;;;;;1.40;0.83;;;16.70;99.90;;;;;;5055716;28;20427;-47
2022/07/07 01:45:24;;;;;;;1.60;1.00;;;16.60;99.90;;;;;;5055247;28;20513;-50
2022/07/07 01:47:51;;;;;;;1.50;1.00;;;16.40;99.90;;;;;;5055585;28;20452;-50
2022/07/07 01:50:17;;;;;;;4.03;1.10;;;16.30;99.90;;;;;;5055229;28;20864;-46
2022/07/07 01:52:44;;;;;;;1.70;1.10;;;16.20;99.90;;;;;;5055771;28;20454;-47
2022/07/07 01:55:11;;;;;;;1.40;1.10;;;16.20;99.90;;;;;;5055194;28;20460;-48
2022/07/07 01:57:39;;;;;;;1.50;0.97;;;16.20;99.90;;;;;;5055329;28;20421;-51
2022/07/07 02:00:08;;;;;;;3.17;1.03;;;16.10;99.90;;;;;;5055431;28;20459;-46
2022/07/07 02:02:36;;;;;;;3.67;1.30;;;16.10;99.90;;;;;;5055387;28;20527;-55
2022/07/07 02:05:03;;;;;;;2.80;1.30;;;16.00;99.90;;;;;;5055584;28;20447;-52
2022/07/07 02:07:30;;;;;;;1.40;1.30;;;16.00;99.90;;;;;;5056520;28;20467;-45
2022/07/07 02:09:57;;;;;;;3.53;0.90;;;15.90;99.90;;;;;;5056212;28;20762;-47
2022/07/07 02:12:24;;;;;;;1.37;0.90;;;15.90;99.90;;;;;;5056230;28;20472;-46
2022/07/07 02:14:59;;;;;;;1.47;1.20;;;15.80;99.90;;;;;;5055617;28;20524;-55
2022/07/07 02:17:26;;;;;;;1.43;1.13;;;15.70;99.90;;;;;;5056251;28;20435;-48
2022/07/07 02:19:53;;;;;;;2.53;1.00;;;15.70;99.90;;;;;;5056819;28;20527;-45
2022/07/07 02:22:20;;;;;;;2.90;1.53;;;15.70;99.90;;;;;;5056254;28;20419;-49
2022/07/07 02:24:47;;;;;;;2.43;1.13;;;15.60;99.90;;;;;;5056558;28;20448;-46
2022/07/07 02:27:14;;;;;;;4.33;1.33;;;15.60;99.90;;;;;;5056310;28;20523;-54
2022/07/07 02:29:43;;;;;;;1.70;1.17;;;15.60;99.90;;;;;;5056668;28;20612;-52
2022/07/07 02:32:11;;;;;;;2.97;1.20;;;15.60;99.90;;;;;;5056134;28;20476;-47
2022/07/07 02:34:41;;;;;;;2.67;1.20;;;15.50;99.90;;;;;;5056194;28;20432;-48
2022/07/07 02:37:08;;;;;;;2.93;1.53;;;15.50;99.90;;;;;;5055259;28;20459;-44
2022/07/07 02:39:34;;;;;;;4.83;1.57;;;15.50;99.90;;;;;;5056138;28;20463;-42
2022/07/07 02:42:01;;;;;;;4.00;1.50;;;15.50;99.90;;;;;;5056652;28;20442;-45
2022/07/07 02:44:28;;;;;;;1.50;1.03;;;15.50;99.90;;;;;;5056500;28;20527;-43
2022/07/07 02:46:57;;;;;;;2.80;1.40;;;15.50;99.90;;;;;;5056293;28;20463;-39
2022/07/07 02:49:25;;;;;;;1.83;1.40;;;15.60;99.90;;;;;;5056233;28;20484;-43
2022/07/07 02:51:52;;;;;;;2.00;1.30;;;15.60;99.90;;;;;;5056242;28;20472;-40
2022/07/07 02:54:21;;;;;;;3.70;1.30;;;15.60;99.90;;;;;;5056286;28;20440;-43
2022/07/07 02:56:50;;;;;;;7.03;1.50;;;15.60;99.90;;;;;;5056035;28;20476;-42
2022/07/07 02:59:17;;;;;;;2.07;1.40;;;15.60;99.90;;;;;;5056160;28;20463;-54
2022/07/07 03:01:44;;;;;;;4.13;1.37;;;15.50;99.90;;;;;;5056470;28;20438;-50
2022/07/07 03:04:12;;;;;;;4.67;1.93;;;15.50;99.90;;;;;;5055989;28;20520;-44
2022/07/07 03:06:40;;;;;;;3.83;1.97;;;15.40;99.90;;;;;;5056371;28;20543;-51
2022/07/07 03:09:06;;;;;;;6.17;1.73;;;15.40;99.90;;;;;;5056159;28;20491;-49
2022/07/07 03:11:35;;;;;;;1.57;1.47;;;15.40;99.90;;;;;;5056062;28;20444;-49
2022/07/07 03:14:04;;;;;;;2.83;1.80;;;15.50;99.90;;;;;;5055662;28;20440;-47
2022/07/07 03:16:31;;;;;;;7.70;3.50;;;15.50;99.90;;;;;;5056115;28;20471;-44
2022/07/07 03:18:59;;;;;;;3.60;2.47;;;15.50;99.90;;;;;;5056291;28;20448;-49
2022/07/07 03:21:26;;;;;;;3.90;2.10;;;15.40;99.90;;;;;;5055695;28;20627;-45
2022/07/07 03:23:54;;;;;;;4.03;2.37;;;15.40;99.90;;;;;;5055362;28;20447;-50
2022/07/07 03:26:22;;;;;;;4.70;2.30;;;15.30;99.90;;;;;;5055133;28;20526;-42
2022/07/07 03:28:49;;;;;;;4.27;2.00;;;15.30;99.90;;;;;;5055675;28;20492;-54
2022/07/07 03:31:16;;;;;;;8.73;2.23;;;15.20;99.90;;;;;;5054367;28;20445;-44
2022/07/07 03:33:42;;;;;;;3.37;2.00;;;15.20;99.90;;;;;;5054011;28;20479;-51
2022/07/07 03:36:09;;;;;;;2.93;2.20;;;15.20;99.90;;;;;;5054097;28;20444;-45
2022/07/07 03:38:39;;;;;;;2.80;1.80;;;15.20;99.90;;;;;;5054516;28;20478;-49
2022/07/07 03:41:07;;;;;;;2.07;1.83;;;15.20;99.90;;;;;;5053544;28;20547;-46
2022/07/07 03:43:34;;;;;;;2.70;1.63;;;15.10;99.90;;;;;;5053785;28;20424;-51
2022/07/07 03:46:03;;;;;;;2.93;1.60;;;15.10;99.90;;;;;;5053996;28;20522;-53
2022/07/07 03:48:30;;;;;;;3.20;1.90;;;15.10;99.90;;;;;;5053961;28;20440;-55
2022/07/07 03:50:57;;;;;;;2.33;1.90;;;15.00;99.90;;;;;;5053966;28;20444;-44
2022/07/07 03:53:24;;;;;;;4.10;2.03;;;15.00;99.90;;;;;;5053916;28;20503;-46
2022/07/07 03:55:51;;;;;;;5.30;2.10;;;15.00;99.90;;;;;;5053836;28;20444;-55
2022/07/07 03:58:19;;;;;;;3.73;2.10;;;15.00;99.90;;;;;;5053332;28;20490;-46
2022/07/07 04:00:46;;;;;;;4.00;2.20;;;15.00;99.90;;;;;;5053841;28;20454;-52
2022/07/07 04:03:12;;;;;;;2.20;1.67;;;15.00;99.90;;;;;;5053215;28;20509;-46
2022/07/07 04:05:39;;;;;;;4.60;2.70;;;15.00;99.90;;;;;;5053415;28;20455;-53
2022/07/07 04:08:06;;;;;;;3.20;2.10;;;15.10;99.90;;;;;;5053143;28;20454;-52
2022/07/07 04:10:35;;;;;;;2.20;2.00;;;15.00;99.90;;;;;;5052934;28;20482;-46
2022/07/07 04:13:01;;;;;;;2.93;2.57;;;15.00;99.90;;;;;;5053636;28;20512;-51
2022/07/07 04:15:32;;;;;;;3.57;2.03;;;14.90;99.90;;;;;;5052967;28;20448;-50
2022/07/07 04:17:59;;;;;;;4.90;2.73;;;14.90;99.90;;;;;;5053222;28;20436;-51
2022/07/07 04:20:25;;;;;;;6.97;2.00;;;14.90;99.90;;;;;;5053086;28;20460;-45
2022/07/07 04:23:01;;;;;;;2.43;2.00;;;14.90;99.90;;;;;;5093950;22;20483;-35
2022/07/07 04:25:31;;;;;;;2.90;1.77;;;14.80;99.90;;;;;;5073692;28;20450;-43
2022/07/07 04:27:58;;;;;;;4.57;3.00;;;14.70;99.90;;;;;;5077729;28;20494;-44
2022/07/07 04:30:25;;;;;;;7.00;2.40;;;14.70;99.90;;;;;;5078003;28;20514;-45
2022/07/07 04:32:53;;;;;;;3.43;2.30;;;14.70;99.90;;;;;;5078438;28;20466;-47
2022/07/07 04:35:20;;;;;;;4.80;2.40;;;14.70;99.90;;;;;;5078161;28;20523;-50
2022/07/07 04:37:46;;;;;;;2.60;2.23;;;14.70;99.90;;;;;;5069750;28;20493;-44
2022/07/07 04:40:13;;;;;;;2.40;2.10;;;14.70;99.90;;;;;;5072839;28;20474;-47
2022/07/07 04:42:41;;;;;;;8.97;2.43;;;14.60;99.90;;;;;;5066836;28;20478;-43
2022/07/07 04:45:09;;;;;;;3.20;2.63;;;14.70;99.90;;;;;;5074307;28;20455;-44
2022/07/07 04:47:40;;;;;;;4.00;2.07;;;14.70;99.90;;;;;;5074838;28;20497;-51
2022/07/07 04:50:09;;;;;;;4.53;2.43;;;14.80;99.90;;;;;;5077737;28;20415;-46
2022/07/07 04:52:36;;;;;;;4.97;2.03;;;14.80;99.90;;;;;;5077513;28;20950;-47
2022/07/07 04:55:03;;;;;;;3.37;3.03;;;14.80;99.90;;;;;;5077734;28;20464;-45
2022/07/07 04:57:30;;;;;;;3.10;2.57;;;14.80;99.90;;;;;;5070670;28;20486;-51
2022/07/07 04:59:57;;;;;;;2.90;2.00;;;14.80;99.90;;;;;;5074048;28;20443;-43
2022/07/07 05:02:24;;;;;;;4.00;2.70;;;14.70;99.90;;;;;;5077351;28;20423;-43
2022/07/07 05:04:51;;;;;;;4.87;3.97;;;14.80;99.90;;;;;;5073773;28;20474;-55
2022/07/07 05:07:20;;;;;;;3.70;2.40;;;14.80;99.90;;;;;;5074648;28;20493;-52
2022/07/07 05:09:47;;;;;;;4.80;2.93;;;14.80;99.90;;;;;;5077722;28;20446;-56
2022/07/07 05:12:14;;;;;;;3.00;2.70;;;14.80;99.90;;;;;;5077521;28;20482;-53
2022/07/07 05:14:41;;;;;;;6.10;3.10;;;14.90;99.90;;;;;;5077340;28;20462;-50
2022/07/07 05:17:08;;;;;;;7.93;2.80;;;14.80;99.90;;;;;;5075978;28;20466;-49
2022/07/07 05:19:36;;;;;;;2.33;2.13;;;14.90;99.90;;;;;;5076225;28;20538;-50
2022/07/07 05:22:03;;;;;;;3.70;2.73;;;14.90;99.90;;;;;;5076158;28;20503;-45
2022/07/07 05:24:32;;;;;;;3.87;3.03;;;14.90;99.90;;;;;;5075834;28;20478;-48
2022/07/07 05:26:58;;;;;;;4.37;2.30;;;15.00;99.90;;;;;;5076658;28;20514;-47
2022/07/07 05:29:26;;;;;;;4.60;3.40;;;15.00;99.90;;;;;;5076514;28;20503;-48
2022/07/07 05:31:53;;;;;;;2.80;2.47;;;15.00;99.90;;;;;;5076389;28;20447;-46
2022/07/07 05:34:20;;;;;;;3.03;2.63;;;15.00;99.90;;;;;;5076353;28;20443;-41
2022/07/07 05:36:46;;;;;;;3.57;2.63;;;15.00;99.90;;;;;;5076225;28;20487;-49
2022/07/07 05:39:14;;;;;;;3.40;2.87;;;15.00;99.90;;;;;;5077015;28;20459;-42
2022/07/07 05:41:42;;;;;;;5.73;3.20;;;15.00;99.90;;;;;;5076618;28;20876;-45
2022/07/07 05:44:09;;;;;;;4.40;2.57;;;14.90;99.90;;;;;;5075913;28;20459;-39
2022/07/07 05:46:36;;;;;;;4.80;2.80;;;14.90;99.90;;;;;;5075927;28;20538;-47
2022/07/07 05:49:03;;;;;;;4.63;2.47;;;14.80;99.90;;;;;;5076798;28;20523;-54
2022/07/07 05:51:31;;;;;;;4.67;3.33;;;14.80;99.90;;;;;;5076505;28;20470;-54
2022/07/07 05:54:00;;;;;;;2.77;2.40;;;14.80;99.90;;;;;;5069814;28;20439;-53
2022/07/07 05:56:27;;;;;;;3.23;2.13;;;14.70;99.90;;;;;;5076985;28;20511;-42
2022/07/07 05:58:56;;;;;;;3.43;2.73;;;14.70;99.90;;;;;;5076482;28;20458;-41
2022/07/07 06:01:22;;;;;;;3.83;2.40;;;14.60;99.90;;;;;;5075350;28;20469;-52
2022/07/07 06:03:49;;;;;;;6.30;3.90;;;14.60;99.90;;;;;;5075716;28;20551;-48
2022/07/07 06:06:16;;;;;;;4.97;3.90;;;14.50;99.90;;;;;;5074993;28;20535;-48
2022/07/07 06:08:43;;;;;;;7.10;2.87;;;14.50;99.90;;;;;;5075064;28;20451;-51
2022/07/07 06:11:09;;;;;;;3.17;2.60;;;14.50;99.90;;;;;;5075061;28;20470;-43
2022/07/07 06:13:38;;;;;;;6.00;2.67;;;14.50;99.90;;;;;;5076390;28;20524;-50
2022/07/07 06:16:07;;;;;;;4.63;3.30;;;14.50;99.90;;;;;;5075765;28;20494;-54
2022/07/07 06:18:36;;;;;;;4.43;3.00;;;14.50;99.90;;;;;;5075367;28;20455;-50
2022/07/07 06:21:02;;;;;;;3.97;3.57;;;14.50;99.90;;;;;;5075685;28;20467;-53
2022/07/07 06:23:29;;;;;;;6.60;3.60;;;14.50;99.90;;;;;;5075065;28;20514;-54
2022/07/07 06:25:56;;;;;;;3.73;3.30;;;14.50;99.90;;;;;;5075932;28;20502;-56
2022/07/07 06:28:23;;;;;;;3.83;3.27;;;14.50;99.90;;;;;;5076499;28;20470;-50
2022/07/07 06:30:50;;;;;;;4.63;4.13;;;14.50;99.90;;;;;;5076774;28;20439;-49
2022/07/07 06:33:18;;;;;;;3.63;3.10;;;14.60;99.90;;;;;;5076216;28;20471;-51
2022/07/07 06:35:45;;;;;;;4.30;3.90;;;14.50;99.90;;;;;;5076363;28;20470;-52
2022/07/07 06:38:12;;;;;;;4.60;3.33;;;14.50;99.90;;;;;;5076259;28;20435;-50
2022/07/07 06:40:39;;;;;;;4.80;3.00;;;14.50;99.90;;;;;;5075716;28;20615;-55
2022/07/07 06:43:06;;;;;;;5.33;3.70;;;14.60;99.90;;;;;;5069983;28;20471;-45
2022/07/07 06:45:32;;;;;;;5.10;3.70;;;14.60;99.90;;;;;;5075600;28;20468;-50
2022/07/07 06:47:59;;;;;;;4.80;3.70;;;14.60;99.90;;;;;;5074993;28;20510;-48
2022/07/07 06:50:27;;;;;;;4.93;3.30;;;14.60;99.90;;;;;;5073625;28;20481;-47
2022/07/07 06:52:54;;;;;;;3.73;3.03;;;14.70;99.90;;;;;;5074835;28;20432;-46
2022/07/07 06:55:21;;;;;;;5.90;4.70;;;14.70;99.90;;;;;;5074821;28;20447;-43
2022/07/07 06:57:48;;;;;;;5.10;4.10;;;14.70;99.90;;;;;;5074291;28;20506;-46
2022/07/07 07:00:15;;;;;;;5.53;3.87;;;14.70;99.90;;;;;;5074898;28;20487;-46
2022/07/07 07:02:43;;;;;;;3.13;2.83;;;14.70;99.90;;;;;;5074807;28;20498;-49
2022/07/07 07:05:10;;;;;;;5.23;2.80;;;14.80;99.90;;;;;;5074783;28;20443;-46
2022/07/07 07:07:39;;;;;;;3.67;2.80;;;14.80;99.90;;;;;;5074100;28;20551;-55
2022/07/07 07:10:06;;;;;;;5.33;3.23;;;14.90;99.90;;;;;;5075054;28;20447;-49
2022/07/07 07:12:33;;;;;;;4.13;3.70;;;14.90;99.90;;;;;;5074172;28;20455;-50
2022/07/07 07:15:00;;;;;;;4.50;3.10;;;14.90;99.90;;;;;;5073752;28;20459;-48
2022/07/07 07:17:27;;;;;;;2.90;2.70;;;14.90;99.90;;;;;;5072260;28;20447;-38
2022/07/07 07:19:54;;;;;;;3.50;2.90;;;14.90;99.90;;;;;;5069955;28;20498;-45
2022/07/07 07:22:21;;;;;;;2.43;2.17;;;14.90;99.90;;;;;;5071536;28;20439;-41
2022/07/07 07:24:49;;;;;;;4.40;2.67;;;15.00;99.90;;;;;;5072827;28;20482;-48
2022/07/07 07:27:16;;;;;;;4.00;2.40;;;15.00;99.90;;;;;;5073738;28;20543;-43
2022/07/07 07:29:43;;;;;;;3.47;2.63;;;15.20;99.90;;;;;;5071371;28;20497;-50
2022/07/07 07:32:10;;;;;;;3.30;2.67;;;15.20;99.90;;;;;;5073955;28;20463;-44
2022/07/07 07:34:39;;;;;;;3.37;2.80;;;15.20;99.90;;;;;;5075040;28;20450;-49
2022/07/07 07:37:06;;;;;;;2.40;1.93;;;15.20;99.90;;;;;;5074869;28;20519;-50
2022/07/07 07:39:34;;;;;;;2.80;2.50;;;15.30;99.90;;;;;;5074671;28;20943;-47
2022/07/07 07:42:02;;;;;;;2.90;2.70;;;15.30;99.90;;;;;;5072364;28;20523;-41
2022/07/07 07:47:13;;;;;;;3.77;2.93;;;15.40;99.90;;;;;;5073777;28;20989;-43
2022/07/07 07:49:40;;;;;;;2.83;2.57;;;15.40;99.90;;;;;;5070395;28;20506;-41
2022/07/07 07:52:07;;;;;;;3.60;3.30;;;15.40;99.90;;;;;;5073777;28;20477;-45
2022/07/07 07:54:34;;;;;;;2.80;2.60;;;15.50;99.90;;;;;;5073976;28;20459;-44
2022/07/07 07:57:04;;;;;;;2.97;2.70;;;15.40;99.90;;;;;;5071269;28;20450;-50
2022/07/07 07:59:31;;;;;;;3.37;3.07;;;15.40;99.90;;;;;;5067355;28;20482;-48
2022/07/07 08:01:58;;;;;;;4.07;3.67;;;15.50;99.90;;;;;;5077634;28;20507;-47
2022/07/07 08:04:24;;;;;;;3.27;2.97;;;15.50;99.90;;;;;;5076801;28;21042;-47
2022/07/07 08:06:51;;;;;;;3.53;3.23;;;15.50;99.90;;;;;;5077459;28;20559;-50
2022/07/07 08:09:18;;;;;;;4.03;3.10;;;15.50;99.90;;;;;;5076649;28;20487;-46
2022/07/07 08:11:51;;;;;;;3.83;3.00;;;15.60;99.90;;;;;;5078130;28;20509;-49
2022/07/07 08:14:19;;;;;;;5.53;3.40;;;15.60;99.90;;;;;;5070808;28;20411;-53
2022/07/07 08:16:46;;;;;;;4.30;3.53;;;15.60;99.90;;;;;;5076810;28;20447;-43
2022/07/07 08:19:17;;;;;;;3.70;3.40;;;15.60;99.90;;;;;;5076404;28;20518;-49
2022/07/07 08:21:46;;;;;;;5.97;3.30;;;15.60;99.90;;;;;;5078125;28;20431;-47
2022/07/07 08:24:13;;;;;;;3.53;3.23;;;15.70;99.90;;;;;;5070220;28;20482;-48
2022/07/07 08:26:40;;;;;;;3.43;3.17;;;15.80;99.90;;;;;;5078122;28;20439;-48
2022/07/07 08:29:13;;;;;;;4.27;2.80;;;15.90;99.90;;;;;;5070595;28;20461;-48
2022/07/07 08:31:41;;;;;;;3.13;2.93;;;16.00;99.90;;;;;;5078721;28;20438;-48
2022/07/07 08:34:10;;;;;;;3.53;2.77;;;16.00;99.90;;;;;;5078482;28;20490;-41
2022/07/07 08:36:37;;;;;;;3.97;3.67;;;16.00;99.90;;;;;;5078472;28;20446;-44
2022/07/07 08:39:05;;;;;;;3.30;3.10;;;16.00;99.90;;;;;;5078513;28;20475;-42
2022/07/07 08:41:32;;;;;;;3.87;3.57;;;16.00;99.90;;;;;;5077046;28;20463;-41
2022/07/07 08:43:59;;;;;;;3.33;3.03;;;16.00;99.90;;;;;;5077185;28;20457;-54
2022/07/07 08:46:27;;;;;;;3.30;3.00;;;16.00;99.90;;;;;;5076170;28;20463;-41
2022/07/07 08:48:57;;;;;;;3.10;2.90;;;16.10;99.90;;;;;;5076966;28;20463;-48
2022/07/07 08:51:25;;;;;;;3.10;2.90;;;16.10;99.90;;;;;;5078234;28;20431;-42
2022/07/07 08:53:52;;;;;;;2.30;2.10;;;16.10;99.90;;;;;;5076771;28;20974;-49
2022/07/07 08:56:20;;;;;;;2.90;2.60;;;16.20;99.90;;;;;;5077614;28;20481;-48
2022/07/07 08:58:48;;;;;;;2.97;2.77;;;16.20;99.90;;;;;;5077536;28;20515;-42
2022/07/07 09:01:14;;;;;;;3.40;3.10;;;16.10;99.90;;;;;;5078175;28;20453;-49
2022/07/07 09:03:42;;;;;;;3.20;2.90;;;16.20;99.90;;;;;;5078743;28;20510;-52
2022/07/07 09:06:10;;;;;;;3.03;2.77;;;16.20;99.90;;;;;;5078560;28;20445;-47
2022/07/07 09:08:40;;;;;;;2.97;2.70;;;16.20;99.90;;;;;;5078533;28;20598;-40
2022/07/07 09:11:09;;;;;;;5.80;2.87;;;16.30;99.90;;;;;;5078571;28;20460;-50
2022/07/07 09:13:37;;;;;;;2.70;2.50;;;16.40;99.90;;;;;;5077210;28;20438;-47
2022/07/07 09:16:06;;;;;;;3.10;2.80;;;16.50;99.90;;;;;;5077439;28;20456;-54
2022/07/07 09:18:35;;;;;;;2.80;2.60;;;16.50;99.90;;;;;;5077916;28;20478;-46
2022/07/07 09:21:03;;;;;;;2.90;2.40;;;16.60;99.90;;;;;;5077701;28;20434;-42
2022/07/07 09:23:32;;;;;;;3.30;2.40;;;16.90;99.90;;;;;;5077677;28;20477;-43
2022/07/07 09:25:59;;;;;;;4.03;3.07;;;17.10;99.90;;;;;;5066512;28;20479;-51
2022/07/07 09:28:27;;;;;;;2.57;2.30;;;17.10;99.90;;;;;;5076911;28;20479;-48
2022/07/07 09:30:54;;;;;;;2.50;2.30;;;17.20;99.90;;;;;;5077309;28;20447;-43
2022/07/07 09:33:23;;;;;;;2.50;2.30;;;17.20;99.90;;;;;;5077500;28;20489;-45
2022/07/07 09:38:39;;;;;;;2.20;2.00;;;17.20;99.90;;;;;;5075691;28;20563;-40
2022/07/07 09:41:08;;;;;;;2.50;2.30;;;17.20;99.90;;;;;;5072040;28;20450;-49
2022/07/07 09:43:38;;;;;;;2.33;2.13;;;17.20;99.90;;;;;;5074133;28;20443;-40
2022/07/07 09:46:16;;;;;;;2.87;2.57;;;17.40;99.90;;;;;;5074494;28;20565;-44
2022/07/07 09:48:46;;;;;;;2.43;2.23;;;17.50;99.90;;;;;;5074910;28;20474;-46
2022/07/07 09:51:16;;;;;;;2.20;2.00;;;17.50;99.90;;;;;;5075617;28;20473;-44
2022/07/07 09:54:03;;;;;;;2.00;1.90;;;17.50;99.90;;;;;;5074011;28;20443;-46
2022/07/07 09:56:32;;;;;;;2.00;1.80;;;17.60;99.90;;;;;;5076117;28;20442;-38
2022/07/07 09:59:00;;;;;;;2.13;1.93;;;17.70;99.90;;;;;;5069737;28;20499;-35
2022/07/07 10:01:29;;;;;;;2.23;2.03;;;17.70;99.90;;;;;;5075878;28;20438;-37
2022/07/07 10:03:57;;;;;;;2.00;1.87;;;17.70;99.90;;;;;;5075468;28;20494;-50
2022/07/07 10:06:25;;;;;;;5.03;2.60;;;17.70;99.90;;;;;;5075535;28;20470;-48
2022/07/07 10:08:58;;;;;;;2.77;2.53;;;17.70;99.90;;;;;;5075145;28;20490;-45
2022/07/07 10:11:33;;;;;;;2.40;2.20;;;17.70;99.90;;;;;;5076036;28;20457;-49
2022/07/07 10:14:08;;;;;;;2.13;1.93;;;17.90;99.90;;;;;;5072450;28;20442;-35
2022/07/07 10:16:36;;;;;;;2.90;2.57;;;17.90;99.90;;;;;;5076152;28;20489;-46
2022/07/07 10:19:03;;;;;;;2.63;2.43;;;17.90;99.90;;;;;;5075261;28;20454;-41
2022/07/07 10:21:30;;;;;;;3.40;2.93;;;18.00;99.90;;;;;;5075696;28;20523;-37
2022/07/07 10:23:59;;;;;;;3.50;3.20;;;18.00;99.90;;;;;;5075530;28;20463;-35
2022/07/07 10:26:36;;;;;;;2.90;2.60;;;18.00;99.90;;;;;;5071888;28;20550;-40
2022/07/07 10:29:04;;;;;;;3.63;3.20;;;18.00;99.90;;;;;;5071870;28;20561;-44
2022/07/07 10:31:31;;;;;;;4.77;3.20;;;18.00;99.90;;;;;;5075696;28;20466;-51
2022/07/07 10:34:04;;;;;;;3.70;3.40;;;18.10;99.90;;;;;;5075777;28;20511;-43
2022/07/07 10:36:59;;;;;;;3.50;3.20;;;18.10;99.90;;;;;;5069182;28;20442;-48
2022/07/07 10:39:32;;;;;;;3.57;2.70;;;18.10;99.90;;;;;;5075853;28;20448;-44
2022/07/07 10:42:05;;;;;;;7.03;2.80;;;18.10;99.90;;;;;;5075720;28;20475;-35
2022/07/07 10:44:33;;;;;;;2.87;2.60;;;18.20;99.90;;;;;;5055806;28;20460;-46
2022/07/07 10:47:00;;;;;;;4.40;3.40;;;18.20;99.90;;;;;;5056428;28;20476;-50
2022/07/07 10:49:38;;;;;;;3.10;2.90;;;18.30;99.90;;;;;;5048420;28;20503;-49
2022/07/07 10:52:11;;;;;;;6.20;3.70;;;18.20;99.90;;;;;;5045993;28;20439;-46
2022/07/07 10:54:41;;;;;;;3.17;2.97;;;18.30;99.90;;;;;;5064847;28;20499;-47
2022/07/07 10:57:14;;;;;;;3.70;3.40;;;18.30;99.90;;;;;;5067055;28;20443;-47
2022/07/07 11:00:18;;;;;;;4.10;3.80;;;18.30;99.90;;;;;;5069208;28;20514;-54
2022/07/07 11:02:48;;;;;;;5.37;3.40;;;18.20;99.90;;;;;;5072781;28;20439;-49
2022/07/07 11:05:30;;;;;;;4.10;3.50;;;18.10;99.90;;;;;;5074811;28;20458;-46
2022/07/07 11:08:21;;;;;;;3.93;3.50;;;18.10;99.90;;;;;;5074650;28;20522;-46
2022/07/07 11:10:56;;;;;;;3.53;3.23;;;18.10;99.90;;;;;;5075839;28;20442;-44
2022/07/07 11:13:30;;;;;;;4.60;4.20;;;18.10;99.90;;;;;;5075329;28;20434;-51
2022/07/07 11:16:13;;;;;;;5.07;3.97;;;18.10;99.90;;;;;;5075611;28;20491;-46
2022/07/07 11:18:42;;;;;;;4.50;4.10;;;18.20;99.90;;;;;;5074048;28;20440;-54
2022/07/07 11:21:09;;;;;;;4.57;4.13;;;18.10;99.90;;;;;;5075208;28;20456;-43
2022/07/07 11:23:52;;;;;;;5.30;4.83;;;18.10;99.90;;;;;;5075318;28;20446;-47
2022/07/07 11:26:23;;;;;;;5.13;4.67;;;18.10;99.90;;;;;;5075435;28;20454;-44
2022/07/07 11:28:50;;;;;;;4.50;4.10;;;18.10;99.90;;;;;;5075332;28;20467;-47
2022/07/07 11:31:20;;;;;;;5.83;5.33;;;18.10;99.90;;;;;;5075443;28;20473;-46
2022/07/07 11:33:52;;;;;;;5.67;5.07;;;18.10;99.90;;;;;;5075273;28;20481;-49
2022/07/07 11:36:21;;;;;;;5.17;4.00;;;18.10;99.90;;;;;;5074988;28;20440;-50
2022/07/07 11:38:52;;;;;;;4.47;4.00;;;18.10;99.90;;;;;;5069619;28;20431;-41
2022/07/07 11:41:18;;;;;;;5.67;5.17;;;18.10;99.90;;;;;;5075416;28;20463;-48
2022/07/07 11:43:55;;;;;;;5.63;5.13;;;18.00;99.90;;;;;;5075150;28;20498;-40
2022/07/07 11:46:25;;;;;;;5.87;5.37;;;18.10;99.90;;;;;;5075388;28;20498;-38
2022/07/07 11:48:52;;;;;;;6.47;5.87;;;18.00;99.90;;;;;;5075299;28;20467;-46
2022/07/07 11:51:29;;;;;;;9.60;4.87;;;17.90;99.90;;;;;;5074863;28;20439;-51
2022/07/07 11:54:00;;;;;;;6.80;5.83;;;17.90;99.90;;;;;;5055592;28;20455;-38
2022/07/07 11:56:31;;;;;;;6.80;6.20;;;17.90;99.90;;;;;;5055659;28;20451;-46
2022/07/07 11:59:00;;;;;;;6.37;5.77;;;17.90;99.90;;;;;;5056045;28;20463;-55
2022/07/07 12:01:31;;;;;;;7.13;6.43;;;17.90;99.90;;;;;;5056175;28;20927;-46
2022/07/07 12:03:58;;;;;;;6.00;5.50;;;18.00;99.90;;;;;;5055856;28;20439;-51
2022/07/07 12:06:27;;;;;;;7.97;5.50;;;18.10;99.90;;;;;;5056276;28;20451;-39
2022/07/07 12:08:56;;;;;;;7.53;6.67;;;18.20;99.90;;;;;;5054748;28;20500;-47
2022/07/07 12:11:23;;;;;;;7.60;6.40;;;18.20;99.90;;;;;;5055051;28;20510;-47
2022/07/07 12:13:51;;;;;;;6.00;5.50;;;18.30;99.90;;;;;;5054894;28;20445;-43
2022/07/07 12:16:20;;;;;;;6.53;5.97;;;18.40;99.90;;;;;;5055448;28;20478;-45
2022/07/07 12:18:47;;;;;;;7.57;5.70;;;18.50;99.90;;;;;;5054940;28;20480;-44
2022/07/07 12:21:15;;;;;;;5.77;5.10;;;18.60;99.90;;;;;;5044536;28;20508;-47
2022/07/07 12:23:43;;;;;;;5.90;5.40;;;18.60;99.90;;;;;;5054487;28;20451;-52
2022/07/07 12:26:13;;;;;;;5.17;4.67;;;18.70;99.90;;;;;;5054477;28;20523;-47
2022/07/07 12:28:41;;;;;;;5.60;5.07;;;18.90;99.90;;;;;;5044452;28;20534;-42
2022/07/07 12:31:09;;;;;;;5.17;4.67;;;19.10;99.90;;;;;;5053026;28;20482;-51
2022/07/07 12:33:39;;;;;;;5.60;4.67;;;19.30;99.90;;;;;;5045051;28;20563;-44
2022/07/07 12:36:13;;;;;;;4.23;3.83;;;19.60;99.90;;;;;;5054158;28;20508;-50
2022/07/07 12:38:45;;;;;;;4.40;4.10;;;19.90;99.90;;;;;;5046848;28;20532;-58
2022/07/07 12:41:25;;;;;;;4.10;3.80;;;20.20;99.90;;;;;;5052732;28;20454;-46
2022/07/07 12:43:56;;;;;;;18.40;8.37;;;20.60;99.90;;;;;;5054719;28;20497;-43
2022/07/07 12:46:33;;;;;;;4.37;4.00;;;20.70;99.90;;;;;;5047094;28;20429;-57
2022/07/07 12:49:04;;;;;;;3.83;3.53;;;20.80;99.90;;;;;;5052342;28;20503;-43
2022/07/07 12:51:31;;;;;;;4.20;3.90;;;20.90;99.90;;;;;;5057575;28;20444;-51
2022/07/07 12:54:00;;;;;;;4.50;4.13;;;20.90;99.90;;;;;;5057618;28;20444;-38
2022/07/07 12:56:33;;;;;;;4.90;4.40;;;20.80;99.90;;;;;;5046210;28;20451;-57
2022/07/07 12:59:00;;;;;;;4.50;4.10;;;20.90;99.90;;;;;;5058010;28;20440;-52
2022/07/07 13:01:28;;;;;;;4.37;3.97;;;21.00;99.90;;;;;;5057324;28;20432;-48